Medora, Iowa
Current Conditions -  °F | °C
As of 11:54 AM on Saturday 25 Oct 2014 (Local Time) from KDSM Reporting Station
Broken Clouds Broken Clouds  
Wind Chill: 68°   Ceiling: 25000
Heat Index: 68°   Visibility: 10mi
Dew Point: 42°   Wind: 7mph
Humidity: 39%   Direction: 20°NNE
Pressure: 30.1"   Gusts: NA
Location:  41.3316°N, 93.579°W
Report Text: KDSM 251654Z 02006KT 10SM BKN250 20/06 A3010 RMK AO2 SLP190 T02000056
Loading
Personal Weather Stations






























Interactive Weather Map
Tropical Storm Tracking
New forecast layout! Learn more

10-Day Weather Forecast

Advertisements
Track Severe Weather on mobile